createdAt,value
2018-03-28T00:01:55.962Z,116.00
2018-03-28T00:04:23.593Z,136.37
2018-03-28T00:06:51.137Z,110.07
2018-03-28T00:09:18.931Z,83.50
2018-03-28T00:11:46.595Z,102.97
2018-03-28T00:14:14.215Z,124.67
2018-03-28T00:16:41.985Z,728.03
2018-03-28T00:19:09.675Z,303.60
2018-03-28T00:21:37.241Z,119.27
2018-03-28T00:24:05.039Z,325.73
2018-03-28T00:26:32.620Z,890.23
2018-03-28T00:29:00.197Z,847.43
2018-03-28T00:31:27.956Z,759.30
2018-03-28T00:33:55.673Z,850.27
2018-03-28T00:36:23.234Z,259.37
2018-03-28T00:38:50.806Z,823.63
2018-03-28T00:41:18.564Z,383.50
2018-03-28T00:43:46.384Z,393.83
2018-03-28T00:46:14.102Z,168.80
2018-03-28T00:48:41.921Z,735.97
2018-03-28T00:51:21.154Z,509.83
2018-03-28T00:53:48.997Z,398.27
2018-03-28T00:56:16.570Z,210.60
2018-03-28T00:58:44.138Z,808.87
2018-03-28T01:01:11.735Z,916.80
2018-03-28T01:03:39.294Z,679.73
2018-03-28T01:06:06.965Z,564.47
2018-03-28T01:08:34.674Z,275.30
2018-03-28T01:11:02.290Z,198.70
2018-03-28T01:13:29.865Z,196.00
2018-03-28T01:15:57.549Z,178.37
2018-03-28T01:18:25.136Z,221.40
2018-03-28T01:20:52.893Z,493.83
2018-03-28T01:23:20.502Z,732.90
2018-03-28T01:25:48.068Z,704.13
2018-03-28T01:28:15.679Z,252.93
2018-03-28T01:30:43.242Z,150.20
2018-03-28T01:33:10.838Z,124.57
2018-03-28T01:35:38.406Z,74.80
2018-03-28T01:38:06.218Z,58.37
2018-03-28T01:40:33.786Z,48.43
2018-03-28T01:43:01.346Z,43.63
2018-03-28T01:45:29.167Z,41.63
2018-03-28T01:47:56.992Z,40.53
2018-03-28T01:50:24.811Z,40.03
2018-03-28T01:52:52.376Z,44.87
2018-03-28T01:55:20.145Z,104.90
2018-03-28T01:57:47.964Z,73.67
2018-03-28T02:00:15.530Z,58.50
2018-03-28T02:02:43.144Z,46.37
2018-03-28T02:05:10.779Z,45.77
2018-03-28T02:07:38.310Z,45.17
2018-03-28T02:10:05.873Z,45.37
2018-03-28T02:12:33.426Z,38.00
2018-03-28T02:15:01.188Z,38.50
2018-03-28T02:17:29.009Z,40.30
2018-03-28T02:19:56.925Z,50.20
2018-03-28T02:22:24.482Z,318.47
2018-03-28T02:24:52.226Z,1160.03
2018-03-28T02:27:19.802Z,860.60
2018-03-28T02:29:47.598Z,90.47
2018-03-28T02:32:15.163Z,454.50
2018-03-28T02:34:42.814Z,163.80
2018-03-28T02:37:10.632Z,235.37
2018-03-28T02:39:38.231Z,257.40
2018-03-28T02:42:05.806Z,122.53
2018-03-28T02:44:33.495Z,50.23
2018-03-28T02:47:01.089Z,49.97
2018-03-28T02:49:28.658Z,45.93
2018-03-28T02:51:56.227Z,42.27
2018-03-28T02:54:23.866Z,44.07
2018-03-28T02:56:51.440Z,41.87
2018-03-28T02:59:18.993Z,38.43
2018-03-28T03:01:46.563Z,135.50
2018-03-28T03:04:14.127Z,427.73
2018-03-28T03:06:41.702Z,849.60
2018-03-28T03:09:09.300Z,710.03
2018-03-28T03:11:36.984Z,250.17
2018-03-28T03:14:04.700Z,777.47
2018-03-28T03:16:32.415Z,433.50
2018-03-28T03:18:59.985Z,805.17
2018-03-28T03:21:27.549Z,113.20
2018-03-28T03:23:55.182Z,620.13
2018-03-28T03:26:22.746Z,157.03
2018-03-28T03:28:50.497Z,88.67
2018-03-28T03:31:18.069Z,488.97
2018-03-28T03:33:45.644Z,290.37
2018-03-28T03:36:13.209Z,72.20
2018-03-28T03:38:40.765Z,75.90
2018-03-28T03:41:08.329Z,64.20
2018-03-28T03:43:36.132Z,66.20
2018-03-28T03:46:03.759Z,66.43
2018-03-28T03:48:31.460Z,82.53
2018-03-28T03:50:59.018Z,85.93
2018-03-28T03:53:26.585Z,393.47
2018-03-28T03:55:54.143Z,197.00
2018-03-28T03:58:21.723Z,70.53
2018-03-28T04:00:49.433Z,59.23
2018-03-28T04:03:17.060Z,62.20
2018-03-28T04:05:44.896Z,51.13
2018-03-28T04:08:12.446Z,50.23
2018-03-28T04:10:40.197Z,54.90
2018-03-28T04:13:07.915Z,97.00
2018-03-28T04:15:35.630Z,108.87
2018-03-28T04:18:03.196Z,455.30
2018-03-28T04:20:30.814Z,75.43
2018-03-28T04:22:58.381Z,60.70
2018-03-28T04:25:25.938Z,85.47
2018-03-28T04:27:53.545Z,129.33
2018-03-28T04:30:21.252Z,591.27
2018-03-28T04:32:48.884Z,271.97
2018-03-28T04:35:16.449Z,185.23
2018-03-28T04:37:44.087Z,85.40
2018-03-28T04:40:11.846Z,88.00
2018-03-28T04:42:39.422Z,83.80
2018-03-28T04:45:07.012Z,88.17
2018-03-28T04:47:34.570Z,99.20
2018-03-28T04:50:02.306Z,97.47
2018-03-28T04:52:30.033Z,85.50
2018-03-28T04:54:57.682Z,91.50
2018-03-28T04:57:25.239Z,86.60
2018-03-28T04:59:52.797Z,82.57
2018-03-28T05:02:20.605Z,76.30
2018-03-28T05:04:48.166Z,68.37
2018-03-28T05:07:15.942Z,68.50
2018-03-28T05:09:43.636Z,82.80
2018-03-28T05:12:11.269Z,99.77
2018-03-28T05:14:39.119Z,90.27
2018-03-28T05:17:06.914Z,82.30
2018-03-28T05:19:34.523Z,82.37
2018-03-28T05:22:02.217Z,85.23
2018-03-28T05:24:29.778Z,72.13
2018-03-28T05:26:57.486Z,118.13
2018-03-28T05:29:25.108Z,72.37
2018-03-28T05:31:52.665Z,65.30
2018-03-28T05:34:20.438Z,83.73
2018-03-28T05:36:48.149Z,71.27
2018-03-28T05:39:15.725Z,97.80
2018-03-28T05:41:43.385Z,104.43
2018-03-28T05:44:10.962Z,100.20
2018-03-28T05:46:38.643Z,88.00
2018-03-28T05:49:06.420Z,76.77
2018-03-28T05:51:33.991Z,72.73
2018-03-28T05:54:01.822Z,66.47
2018-03-28T05:56:29.602Z,73.13
2018-03-28T05:58:57.322Z,71.80
2018-03-28T06:01:25.144Z,79.37
2018-03-28T06:03:52.957Z,100.00
2018-03-28T06:06:20.660Z,65.77
2018-03-28T06:08:48.213Z,64.43
2018-03-28T06:11:16.011Z,62.03
2018-03-28T06:13:43.808Z,108.83
2018-03-28T06:16:11.525Z,150.93
2018-03-28T06:18:39.746Z,81.63
2018-03-28T06:21:07.457Z,89.73
2018-03-28T06:23:35.070Z,79.20
2018-03-28T06:26:02.631Z,82.20
2018-03-28T06:28:30.339Z,76.83
2018-03-28T06:30:58.158Z,76.63
2018-03-28T06:33:25.767Z,76.07
2018-03-28T06:35:53.347Z,71.17
2018-03-28T06:38:20.915Z,67.20
2018-03-28T06:40:48.729Z,290.13
2018-03-28T06:43:16.339Z,376.30
2018-03-28T06:45:43.916Z,225.23
2018-03-28T06:48:11.490Z,197.57
2018-03-28T06:50:39.053Z,216.60
2018-03-28T06:53:06.633Z,189.90
2018-03-28T06:55:34.199Z,162.07
2018-03-28T06:58:01.845Z,119.20
2018-03-28T07:00:29.403Z,91.30
2018-03-28T07:02:57.195Z,92.63
2018-03-28T07:05:24.779Z,95.97
2018-03-28T07:07:52.346Z,128.47
2018-03-28T07:10:20.143Z,267.43
2018-03-28T07:12:47.722Z,385.37
2018-03-28T07:15:15.346Z,167.20
2018-03-28T07:17:43.097Z,184.17
2018-03-28T07:20:10.919Z,128.17
2018-03-28T07:22:38.489Z,100.13
2018-03-28T07:25:06.137Z,89.43
2018-03-28T07:27:33.863Z,81.93
2018-03-28T07:30:01.435Z,85.37
2018-03-28T07:32:28.989Z,66.93
2018-03-28T07:34:56.723Z,78.27
2018-03-28T07:37:24.298Z,136.37
2018-03-28T07:39:51.874Z,286.27
2018-03-28T07:42:19.678Z,206.67
2018-03-28T07:44:47.289Z,87.13
2018-03-28T07:47:15.014Z,68.73
2018-03-28T07:49:42.834Z,64.37
2018-03-28T07:52:10.653Z,70.07
2018-03-28T07:54:38.214Z,65.90
2018-03-28T07:57:05.866Z,70.53
2018-03-28T07:59:33.422Z,68.20
2018-03-28T08:02:01.047Z,78.87
2018-03-28T08:04:28.840Z,68.03
2018-03-28T08:06:56.658Z,70.33
2018-03-28T08:09:24.249Z,64.43
2018-03-28T08:11:51.811Z,60.77
2018-03-28T08:14:19.434Z,54.90
2018-03-28T08:16:46.998Z,59.07
2018-03-28T08:19:14.880Z,74.87
2018-03-28T08:21:42.555Z,66.53
2018-03-28T08:24:10.153Z,60.97
2018-03-28T08:26:37.722Z,63.10
2018-03-28T08:29:05.520Z,63.37
2018-03-28T08:31:33.343Z,68.37
2018-03-28T08:34:01.036Z,60.37
2018-03-28T08:36:28.754Z,57.43
2018-03-28T08:38:56.493Z,74.07
2018-03-28T08:41:24.049Z,76.90
2018-03-28T08:43:51.618Z,69.30
2018-03-28T08:46:19.345Z,65.53
2018-03-28T08:48:47.164Z,65.83
2018-03-28T08:51:14.984Z,60.53
2018-03-28T08:53:42.766Z,63.93
2018-03-28T08:56:10.326Z,61.97
2018-03-28T08:58:37.885Z,56.47
2018-03-28T09:01:05.482Z,54.67
2018-03-28T09:03:33.273Z,65.67
2018-03-28T09:06:00.842Z,51.93
2018-03-28T09:08:28.500Z,60.20
2018-03-28T09:10:56.327Z,59.20
2018-03-28T09:13:23.886Z,56.27
2018-03-28T09:15:51.448Z,58.33
2018-03-28T09:18:19.257Z,54.23
2018-03-28T09:20:46.814Z,53.97
2018-03-28T09:23:14.381Z,45.30
2018-03-28T09:25:41.956Z,47.27
2018-03-28T09:28:09.652Z,56.70
2018-03-28T09:30:37.224Z,59.37
2018-03-28T09:33:04.810Z,55.70
2018-03-28T09:35:32.382Z,42.87
2018-03-28T09:37:59.942Z,44.40
2018-03-28T09:40:27.533Z,43.43
2018-03-28T09:42:55.220Z,42.47
2018-03-28T09:45:23.076Z,42.80
2018-03-28T09:47:50.630Z,39.90
2018-03-28T09:50:18.192Z,39.40
2018-03-28T09:52:45.930Z,39.40
2018-03-28T09:55:13.640Z,41.27
2018-03-28T09:57:41.210Z,36.30
2018-03-28T10:00:09.087Z,40.93
2018-03-28T10:02:42.118Z,64.43
2018-03-28T10:05:11.662Z,47.93
2018-03-28T10:07:39.234Z,38.70
2018-03-28T10:10:07.082Z,41.63
2018-03-28T10:12:34.673Z,44.00
2018-03-28T10:15:02.535Z,43.80
2018-03-28T10:17:30.108Z,37.57
2018-03-28T10:19:57.732Z,42.17
2018-03-28T10:22:25.296Z,41.80
2018-03-28T10:24:52.875Z,45.83
2018-03-28T10:27:20.709Z,40.17
2018-03-28T10:29:48.538Z,37.73
2018-03-28T10:32:16.117Z,45.07
2018-03-28T10:34:43.839Z,37.03
2018-03-28T10:37:11.681Z,35.13
2018-03-28T10:39:39.242Z,33.03
2018-03-28T10:42:06.806Z,34.77
2018-03-28T10:44:34.378Z,37.03
2018-03-28T10:47:02.154Z,40.37
2018-03-28T10:49:29.971Z,34.53
2018-03-28T10:51:57.795Z,33.70
2018-03-28T10:54:25.421Z,36.50
2018-03-28T10:56:53.106Z,36.50
2018-03-28T10:59:20.684Z,39.47
2018-03-28T11:01:48.266Z,37.77
2018-03-28T11:04:16.081Z,39.67
2018-03-28T11:06:43.899Z,35.63
2018-03-28T11:09:11.458Z,35.87
2018-03-28T11:11:39.081Z,33.57
2018-03-28T11:14:06.650Z,35.10
2018-03-28T11:16:34.469Z,32.00
2018-03-28T11:19:02.070Z,30.67
2018-03-28T11:21:29.649Z,34.33
2018-03-28T11:23:57.236Z,34.87
2018-03-28T11:26:24.832Z,34.40
2018-03-28T11:28:52.623Z,32.73
2018-03-28T11:31:20.477Z,34.80
2018-03-28T11:33:48.051Z,34.37
2018-03-28T11:36:15.696Z,32.13
2018-03-28T11:38:43.264Z,29.43
2018-03-28T11:41:10.845Z,35.47
2018-03-28T11:43:38.566Z,30.47
2018-03-28T11:46:06.365Z,33.17
2018-03-28T11:48:33.931Z,31.20
2018-03-28T11:51:01.506Z,29.93
2018-03-28T11:53:29.073Z,36.20
2018-03-28T11:55:56.654Z,31.33
2018-03-28T11:58:24.287Z,30.63
2018-03-28T12:00:51.861Z,34.83
2018-03-28T12:03:19.422Z,31.40
2018-03-28T12:05:47.004Z,37.27
2018-03-28T12:08:14.744Z,34.70
2018-03-28T12:10:42.354Z,32.90
2018-03-28T12:13:10.081Z,33.90
2018-03-28T12:15:37.900Z,34.53
2018-03-28T12:18:05.478Z,29.70
2018-03-28T12:20:33.052Z,34.90
2018-03-28T12:23:00.677Z,35.67
2018-03-28T12:25:28.252Z,36.37
2018-03-28T12:27:55.992Z,37.00
2018-03-28T12:30:23.813Z,40.23
2018-03-28T12:32:51.625Z,33.40
2018-03-28T12:35:19.444Z,33.77
2018-03-28T12:37:47.262Z,31.83
2018-03-28T12:40:14.980Z,36.17
2018-03-28T12:42:42.596Z,32.87
2018-03-28T12:45:10.171Z,36.90
2018-03-28T12:47:38.035Z,36.77
2018-03-28T12:50:05.935Z,38.77
2018-03-28T12:52:33.466Z,34.60
2018-03-28T12:55:01.043Z,43.87
2018-03-28T12:57:28.807Z,49.87
2018-03-28T12:59:56.683Z,46.80
2018-03-28T13:02:24.391Z,49.63
2018-03-28T13:04:52.168Z,58.33
2018-03-28T13:07:19.771Z,36.50
2018-03-28T13:09:47.599Z,35.60
2018-03-28T13:12:15.170Z,36.27
2018-03-28T13:14:42.744Z,31.70
2018-03-28T13:17:10.370Z,34.53
2018-03-28T13:19:37.970Z,32.97
2018-03-28T13:22:05.790Z,29.37
2018-03-28T13:24:33.607Z,32.67
2018-03-28T13:27:01.325Z,34.43
2018-03-28T13:29:28.891Z,29.87
2018-03-28T13:31:56.446Z,33.47
2018-03-28T13:34:24.057Z,36.37
2018-03-28T13:36:51.632Z,41.93
2018-03-28T13:39:19.200Z,44.80
2018-03-28T13:41:46.771Z,33.83
2018-03-28T13:44:14.432Z,39.23
2018-03-28T13:46:42.055Z,39.57
2018-03-28T13:49:09.676Z,41.77
2018-03-28T13:51:37.242Z,28.97
2018-03-28T13:54:05.021Z,33.23
2018-03-28T13:56:32.586Z,38.33
2018-03-28T13:59:00.359Z,32.10
2018-03-28T14:01:27.933Z,33.93
2018-03-28T14:03:55.693Z,29.60
2018-03-28T14:06:23.271Z,35.53
2018-03-28T14:08:50.848Z,31.83
2018-03-28T14:11:18.421Z,36.00
2018-03-28T14:13:45.982Z,59.03
2018-03-28T14:16:13.719Z,29.23
2018-03-28T14:18:42.170Z,38.60
2018-03-28T14:21:09.741Z,43.97
2018-03-28T14:23:37.334Z,39.77
2018-03-28T14:26:05.156Z,36.63
2018-03-28T14:28:32.726Z,30.70
2018-03-28T14:31:00.493Z,31.97
2018-03-28T14:33:28.126Z,31.77
2018-03-28T14:35:55.930Z,28.20
2018-03-28T14:38:23.496Z,29.33
2018-03-28T14:40:51.156Z,31.37
2018-03-28T14:43:18.763Z,31.47
2018-03-28T14:45:46.466Z,32.67
2018-03-28T14:48:14.185Z,35.63
2018-03-28T14:50:41.810Z,34.27
2018-03-28T14:53:09.366Z,29.33
2018-03-28T14:55:37.001Z,27.53
2018-03-28T14:58:04.625Z,29.80
2018-03-28T15:00:32.198Z,33.97
2018-03-28T15:03:00.029Z,40.37
2018-03-28T15:05:27.610Z,40.10
2018-03-28T15:07:55.230Z,36.30
2018-03-28T15:10:22.818Z,32.83
2018-03-28T15:12:50.381Z,39.33
2018-03-28T15:15:17.955Z,38.50
2018-03-28T15:17:45.624Z,49.83
2018-03-28T15:20:13.455Z,53.77
2018-03-28T15:22:41.018Z,54.33
2018-03-28T15:25:08.887Z,43.50
2018-03-28T15:27:36.470Z,46.17
2018-03-28T15:30:04.324Z,53.53
2018-03-28T15:32:31.893Z,52.27
2018-03-28T15:34:59.623Z,78.93
2018-03-28T15:37:27.271Z,95.77
2018-03-28T15:39:54.850Z,117.37
2018-03-28T15:42:22.482Z,88.63
2018-03-28T15:44:50.117Z,66.07
2018-03-28T15:47:17.926Z,89.53
2018-03-28T15:49:45.672Z,89.93
2018-03-28T15:52:13.277Z,90.00
2018-03-28T15:54:40.882Z,78.90
2018-03-28T15:57:08.446Z,82.63
2018-03-28T15:59:36.075Z,106.40
2018-03-28T16:02:03.671Z,92.23
2018-03-28T16:04:31.475Z,127.40
2018-03-28T16:06:59.062Z,153.40
2018-03-28T16:09:26.811Z,123.40
2018-03-28T16:11:54.426Z,141.53
2018-03-28T16:14:21.995Z,137.97
2018-03-28T16:16:49.869Z,122.27
2018-03-28T16:19:17.684Z,118.30
2018-03-28T16:21:45.242Z,84.43
2018-03-28T16:24:12.825Z,65.10
2018-03-28T16:26:40.639Z,77.83
2018-03-28T16:29:08.213Z,101.63
2018-03-28T16:31:35.782Z,181.83
2018-03-28T16:34:03.420Z,172.23
2018-03-28T16:36:30.990Z,147.30
2018-03-28T16:38:58.579Z,136.23
2018-03-28T16:41:26.208Z,121.90
2018-03-28T16:43:53.933Z,134.37
2018-03-28T16:46:21.652Z,128.73
2018-03-28T16:48:49.402Z,125.07
2018-03-28T16:51:17.108Z,119.50
2018-03-28T16:53:44.683Z,145.90
2018-03-28T16:56:12.250Z,229.97
2018-03-28T16:58:39.826Z,281.97
2018-03-28T17:01:07.390Z,201.17
2018-03-28T17:03:34.967Z,166.70
2018-03-28T17:06:02.539Z,153.40
2018-03-28T17:08:30.171Z,149.07
2018-03-28T17:10:57.961Z,135.40
2018-03-28T17:13:25.558Z,162.50
2018-03-28T17:15:53.274Z,301.00
2018-03-28T17:18:20.845Z,163.00
2018-03-28T17:20:48.631Z,372.30
2018-03-28T17:23:16.449Z,407.77
2018-03-28T17:25:44.086Z,462.03
2018-03-28T17:28:11.669Z,344.27
2018-03-28T17:30:39.239Z,225.03
2018-03-28T17:33:06.819Z,226.93
2018-03-28T17:35:34.387Z,215.97
2018-03-28T17:38:01.975Z,240.57
2018-03-28T17:40:29.774Z,247.80
2018-03-28T17:42:57.409Z,175.80
2018-03-28T17:45:25.211Z,168.23
2018-03-28T17:47:53.028Z,234.33
2018-03-28T17:50:20.641Z,184.07
2018-03-28T17:52:48.466Z,245.27
2018-03-28T17:55:16.045Z,319.73
2018-03-28T17:57:43.776Z,379.53
2018-03-28T18:00:11.620Z,406.67
2018-03-28T18:02:39.219Z,288.30
2018-03-28T18:05:06.832Z,177.73
2018-03-28T18:07:34.444Z,135.97
2018-03-28T18:10:02.191Z,163.50
2018-03-28T18:12:30.010Z,132.37
2018-03-28T18:14:57.829Z,133.13
2018-03-28T18:17:25.631Z,154.97
2018-03-28T18:19:53.466Z,189.03
2018-03-28T18:22:21.076Z,209.30
2018-03-28T18:24:48.902Z,260.33
2018-03-28T18:27:16.721Z,294.93
2018-03-28T18:29:44.295Z,272.70
2018-03-28T18:32:12.031Z,280.20
2018-03-28T18:34:39.875Z,327.27
2018-03-28T18:37:07.697Z,305.97
2018-03-28T18:39:35.304Z,374.50
2018-03-28T18:42:02.928Z,505.30
2018-03-28T18:44:30.511Z,377.03
2018-03-28T18:46:58.162Z,348.93
2018-03-28T18:49:25.730Z,473.30
2018-03-28T18:51:53.303Z,472.43
2018-03-28T18:54:20.921Z,605.27
2018-03-28T18:56:48.501Z,449.23
2018-03-28T18:59:16.268Z,439.40
2018-03-28T19:01:43.997Z,333.87
2018-03-28T19:04:11.671Z,270.37
2018-03-28T19:06:39.326Z,247.03
2018-03-28T19:09:07.012Z,269.57
2018-03-28T19:11:34.642Z,257.00
2018-03-28T19:14:02.253Z,258.17
2018-03-28T19:16:30.081Z,242.03
2018-03-28T19:18:57.898Z,243.90
2018-03-28T19:21:25.476Z,232.87
2018-03-28T19:23:53.057Z,295.50
2018-03-28T19:26:20.937Z,431.80
2018-03-28T19:28:48.772Z,436.70
2018-03-28T19:31:16.341Z,392.83
2018-03-28T19:33:43.905Z,361.57
2018-03-28T19:36:11.490Z,352.80
2018-03-28T19:38:39.244Z,319.23
2018-03-28T19:41:06.826Z,242.33
2018-03-28T19:43:34.398Z,196.07
2018-03-28T19:46:02.289Z,175.93
2018-03-28T19:48:30.016Z,160.77
2018-03-28T19:50:57.627Z,140.87
2018-03-28T19:53:25.452Z,137.27
2018-03-28T19:55:53.049Z,331.20
2018-03-28T19:58:20.622Z,323.90
2018-03-28T20:00:48.190Z,313.70
2018-03-28T20:03:15.822Z,247.77
2018-03-28T20:05:43.641Z,203.83
2018-03-28T20:08:11.206Z,163.17
2018-03-28T20:10:38.774Z,144.87
2018-03-28T20:13:06.335Z,138.73
2018-03-28T20:15:33.925Z,139.33
2018-03-28T20:18:01.486Z,130.27
2018-03-28T20:20:29.348Z,144.30
2018-03-28T20:22:57.163Z,139.93
2018-03-28T20:25:24.730Z,154.27
2018-03-28T20:27:52.302Z,178.97
2018-03-28T20:30:19.863Z,151.30
2018-03-28T20:32:47.511Z,128.20
2018-03-28T20:35:15.357Z,113.60
2018-03-28T20:37:43.075Z,120.00
2018-03-28T20:40:10.690Z,117.60
2018-03-28T20:42:38.254Z,129.13
2018-03-28T20:45:05.827Z,119.73
2018-03-28T20:47:33.385Z,114.83
2018-03-28T20:50:00.941Z,111.50
2018-03-28T20:52:28.781Z,102.80
2018-03-28T20:54:56.338Z,98.23
2018-03-28T20:57:24.008Z,98.60
2018-03-28T20:59:51.576Z,101.00
2018-03-28T21:02:19.231Z,92.53
2018-03-28T21:04:46.789Z,89.90
2018-03-28T21:07:14.346Z,80.10
2018-03-28T21:09:42.106Z,76.50
2018-03-28T21:12:09.661Z,77.13
2018-03-28T21:14:37.354Z,89.70
2018-03-28T21:17:04.939Z,138.83
2018-03-28T21:19:32.563Z,119.77
2018-03-28T21:22:00.127Z,115.73
2018-03-28T21:24:27.687Z,115.77
2018-03-28T21:26:55.431Z,143.47
2018-03-28T21:29:22.997Z,208.80
2018-03-28T21:31:50.578Z,451.90
2018-03-28T21:34:18.382Z,239.10
2018-03-28T21:36:46.006Z,204.13
2018-03-28T21:39:13.821Z,208.47
2018-03-28T21:41:41.540Z,140.20
2018-03-28T21:44:09.123Z,151.70
2018-03-28T21:46:36.714Z,136.87
2018-03-28T21:49:04.493Z,129.77
2018-03-28T21:51:32.064Z,111.37
2018-03-28T21:53:59.935Z,106.50
2018-03-28T21:56:27.748Z,120.90
2018-03-28T21:58:55.309Z,107.80
2018-03-28T22:01:23.085Z,102.13
2018-03-28T22:03:50.650Z,81.47
2018-03-28T22:06:18.234Z,86.57
2018-03-28T22:08:45.789Z,84.60
2018-03-28T22:11:13.418Z,83.00
2018-03-28T22:13:40.993Z,89.03
2018-03-28T22:16:08.562Z,79.37
2018-03-28T22:18:36.142Z,81.50
2018-03-28T22:21:03.898Z,81.30
2018-03-28T22:23:31.493Z,80.27
2018-03-28T22:25:59.060Z,81.73
2018-03-28T22:28:26.732Z,98.03
2018-03-28T22:30:54.318Z,84.73
2018-03-28T22:33:21.874Z,83.40
2018-03-28T22:35:49.438Z,87.20
2018-03-28T22:38:17.153Z,82.93
2018-03-28T22:40:44.974Z,91.87
2018-03-28T22:43:12.545Z,139.13
2018-03-28T22:45:40.174Z,113.70
2018-03-28T22:48:07.758Z,105.37
2018-03-28T22:50:35.342Z,104.23
2018-03-28T22:53:02.906Z,96.17
2018-03-28T22:55:30.467Z,120.93
2018-03-28T22:57:58.043Z,132.57
2018-03-28T23:00:25.812Z,107.10
2018-03-28T23:02:53.450Z,110.50
2018-03-28T23:05:21.249Z,100.60
2018-03-28T23:07:48.810Z,90.07
2018-03-28T23:10:16.588Z,89.30
2018-03-28T23:12:44.148Z,95.10
2018-03-28T23:15:11.717Z,86.23
2018-03-28T23:17:39.305Z,94.40
2018-03-28T23:20:06.926Z,92.43
2018-03-28T23:22:39.270Z,89.37
2018-03-28T23:25:06.858Z,84.93
2018-03-28T23:27:34.425Z,82.53
2018-03-28T23:30:02.014Z,79.47
2018-03-28T23:32:29.585Z,81.03
2018-03-28T23:34:57.378Z,86.23
2018-03-28T23:37:25.169Z,80.93
2018-03-28T23:39:52.733Z,113.23
2018-03-28T23:42:20.543Z,104.53
2018-03-28T23:44:48.109Z,96.37
2018-03-28T23:47:15.674Z,86.80
2018-03-28T23:49:43.247Z,92.50
2018-03-28T23:52:10.798Z,93.03
2018-03-28T23:54:38.421Z,101.80
2018-03-28T23:57:05.982Z,94.37
2018-03-28T23:59:33.716Z,87.53
